Time;durP1;ratioP1;P1;durP2;ratioP2;P2;SDS_P1;SDS_P2;PMS_P1;PMS_P2;Temp;Humidity;BMP_temperature;BMP_pressure;BME280_temperature;BME280_humidity;BME280_pressure;Samples;Min_cycle;Max_cycle;Signal;HPM_P1;HPM_P2
2023/02/23 00:01:18;;;;;;;18.10;13.98;;;;;;;12.82;100.00;101264.16;2091855;28;20041;-76
2023/02/23 00:02:40;;;;;;;19.15;14.23;;;;;;;12.82;100.00;101264.16;2094905;28;20124;-76
2023/02/23 00:04:03;;;;;;;19.73;12.98;;;;;;;12.83;100.00;101271.25;2096839;28;20052;-75
2023/02/23 00:05:25;;;;;;;18.33;14.30;;;;;;;12.83;100.00;101265.03;2096072;28;20049;-75
2023/02/23 00:06:47;;;;;;;18.17;13.38;;;;;;;12.84;100.00;101258.88;2097437;28;20047;-76
2023/02/23 00:08:10;;;;;;;18.02;13.05;;;;;;;12.83;100.00;101260.63;2100272;28;20048;-75
2023/02/23 00:09:35;;;;;;;17.80;12.43;;;;;;;12.85;100.00;101260.66;2089004;28;20473;-75
2023/02/23 00:10:59;;;;;;;17.73;12.73;;;;;;;12.86;100.00;101265.09;2084148;28;20048;-76
2023/02/23 00:12:22;;;;;;;17.05;11.50;;;;;;;12.88;100.00;101266.00;2092287;28;20048;-76
2023/02/23 00:13:48;;;;;;;16.48;11.45;;;;;;;12.87;100.00;101264.22;2094924;28;20099;-75
2023/02/23 00:15:11;;;;;;;18.83;13.02;;;;;;;12.86;100.00;101265.09;2095187;28;20086;-75
2023/02/23 00:16:36;;;;;;;16.60;12.43;;;;;;;12.87;100.00;101262.44;2094676;28;20119;-76
2023/02/23 00:17:59;;;;;;;17.92;11.90;;;;;;;12.88;100.00;101258.03;2094368;28;20044;-76
2023/02/23 00:19:23;;;;;;;15.43;11.48;;;;;;;12.88;100.00;101258.03;2093229;28;20139;-75
2023/02/23 00:20:47;;;;;;;15.30;11.05;;;;;;;12.86;100.00;101255.41;2094332;28;20500;-76
2023/02/23 00:22:08;;;;;;;18.25;12.55;;;;;;;12.85;100.00;101261.56;2099621;28;20064;-75
2023/02/23 00:23:30;;;;;;;15.45;10.73;;;;;;;12.85;100.00;101252.72;2093798;28;20090;-75
2023/02/23 00:24:52;;;;;;;17.77;10.93;;;;;;;12.86;100.00;101251.84;2085866;28;20053;-75
2023/02/23 00:26:14;;;;;;;;;;;;;;;12.81;100.00;101251.78;2097837;28;20060;-76
2023/02/23 00:27:37;;;;;;;19.30;11.40;;;;;;;12.81;100.00;101251.78;2101671;28;19920;-76
2023/02/23 00:28:59;;;;;;;15.98;10.82;;;;;;;12.84;100.00;101258.88;2096982;28;20167;-75
2023/02/23 00:30:23;;;;;;;14.73;10.00;;;;;;;12.85;100.00;101252.72;2093481;28;20496;-76
2023/02/23 00:31:47;;;;;;;13.98;10.13;;;;;;;12.86;100.00;101252.75;2083334;28;20493;-75
2023/02/23 00:33:09;;;;;;;14.27;10.75;;;;;;;12.86;100.00;101251.84;2092749;28;20495;-75
2023/02/23 00:34:30;;;;;;;16.33;11.10;;;;;;;12.86;100.00;101252.75;2090664;28;20455;-75
2023/02/23 00:35:54;;;;;;;15.75;10.70;;;;;;;12.87;100.00;101249.19;2097526;28;20512;-76
2023/02/23 00:37:17;;;;;;;15.68;11.18;;;;;;;12.87;100.00;101243.00;2094390;28;20041;-75
2023/02/23 00:38:40;;;;;;;13.57;10.02;;;;;;;12.87;100.00;101249.19;2083367;28;20957;-76
2023/02/23 00:40:03;;;;;;;17.42;11.13;;;;;;;12.86;100.00;101249.22;2092337;28;20052;-75
2023/02/23 00:41:28;;;;;;;15.93;11.20;;;;;;;12.80;100.00;101244.69;2089328;28;20040;-75
2023/02/23 00:42:51;;;;;;;17.13;10.65;;;;;;;12.72;100.00;101244.59;2100194;28;20048;-75
2023/02/23 00:44:14;;;;;;;15.98;10.20;;;;;;;12.63;100.00;101239.16;2101794;28;20067;-76
2023/02/23 00:45:37;;;;;;;14.82;10.00;;;;;;;12.52;100.00;101232.81;2094237;28;20071;-75
2023/02/23 00:47:00;;;;;;;16.27;11.48;;;;;;;12.43;100.00;101232.66;2098993;28;20894;-75
2023/02/23 00:48:22;;;;;;;17.67;12.18;;;;;;;12.37;100.00;101229.94;2101753;28;20316;-76
2023/02/23 00:49:45;;;;;;;16.88;11.32;;;;;;;12.36;100.00;101233.44;2111057;28;20139;-75
2023/02/23 00:51:06;;;;;;;18.05;12.52;;;;;;;12.38;100.00;101234.34;2105235;28;20051;-76
2023/02/23 00:52:28;;;;;;;17.95;11.95;;;;;;;12.39;100.00;101225.56;2090444;28;20048;-76
2023/02/23 00:53:53;;;;;;;15.02;11.45;;;;;;;12.41;100.00;101229.09;2095562;28;20106;-75
2023/02/23 00:55:16;;;;;;;20.05;12.02;;;;;;;12.42;100.00;101222.03;2102906;28;20082;-75
2023/02/23 00:56:39;;;;;;;16.05;10.60;;;;;;;12.41;100.00;101220.25;2102658;28;20044;-76
2023/02/23 00:58:02;;;;;;;14.55;10.20;;;;;;;12.40;100.00;101226.44;2102511;28;20104;-75
2023/02/23 00:59:25;;;;;;;14.50;10.65;;;;;;;12.37;100.00;101229.94;2091004;28;20448;-76
2023/02/23 01:00:46;;;;;;;17.15;11.05;;;;;;;12.32;100.00;101226.31;2088456;28;20131;-75
2023/02/23 01:02:10;;;;;;;15.63;10.95;;;;;;;12.30;100.00;101228.03;2091061;28;20063;-75
2023/02/23 01:03:37;;;;;;;16.20;11.07;;;;;;;12.29;100.00;101231.56;2086420;28;20049;-76
2023/02/23 01:04:59;;;;;;;17.70;11.23;;;;;;;12.28;100.00;101235.94;2083932;28;20493;-75
2023/02/23 01:06:21;;;;;;;15.55;11.65;;;;;;;12.28;100.00;101229.75;2083302;28;20052;-75
2023/02/23 01:07:46;;;;;;;14.93;11.13;;;;;;;12.26;100.00;101226.22;2091474;28;20044;-75
2023/02/23 01:09:09;;;;;;;15.88;10.60;;;;;;;12.23;100.00;101221.75;2104861;28;20132;-75
2023/02/23 01:10:35;;;;;;;16.35;11.00;;;;;;;12.21;100.00;101228.78;2101317;28;20059;-75
2023/02/23 01:12:00;;;;;;;13.90;9.85;;;;;;;12.17;100.00;101221.66;2094527;28;20067;-76
2023/02/23 01:13:23;;;;;;;17.17;10.77;;;;;;;12.13;100.00;101217.19;2100163;28;20067;-75
2023/02/23 01:14:46;;;;;;;14.82;9.95;;;;;;;12.10;100.00;101216.25;2093891;28;20577;-75
2023/02/23 01:16:09;;;;;;;22.33;15.95;;;;;;;12.07;100.00;101214.44;2102575;28;20071;-75
2023/02/23 01:17:33;;;;;;;35.15;31.10;;;;;;;12.04;100.00;101219.69;2110889;28;20476;-75
2023/02/23 01:18:56;;;;;;;24.02;20.52;;;;;;;12.02;100.00;101221.41;2096587;28;20090;-75
2023/02/23 01:20:20;;;;;;;15.95;11.60;;;;;;;12.01;100.00;101218.75;2100551;28;20097;-75
2023/02/23 01:21:42;;;;;;;16.75;11.88;;;;;;;12.00;100.00;101216.97;2093204;28;20056;-76
2023/02/23 01:23:06;;;;;;;19.20;14.93;;;;;;;11.98;100.00;101219.56;2099468;28;20082;-76
2023/02/23 01:24:27;;;;;;;19.45;14.05;;;;;;;11.96;100.00;101221.28;2093465;28;20440;-75
2023/02/23 01:25:50;;;;;;;16.88;12.88;;;;;;;11.94;100.00;101217.75;2095707;28;20428;-76
2023/02/23 01:27:12;;;;;;;17.70;12.98;;;;;;;11.91;100.00;101215.03;2093866;28;20540;-75
2023/02/23 01:28:34;;;;;;;17.45;12.05;;;;;;;11.89;100.00;101215.00;2098835;28;20048;-75
2023/02/23 01:29:56;;;;;;;16.33;11.60;;;;;;;11.85;100.00;101218.47;2093479;28;20047;-75
2023/02/23 01:31:18;;;;;;;15.23;10.82;;;;;;;11.81;100.00;101214.00;2089804;28;20094;-75
2023/02/23 01:32:42;;;;;;;14.82;10.77;;;;;;;11.78;100.00;101206.00;2090565;28;20068;-75
2023/02/23 01:34:04;;;;;;;15.30;10.52;;;;;;;11.75;100.00;101210.38;2087577;28;20466;-75
2023/02/23 01:35:27;;;;;;;17.77;12.13;;;;;;;11.73;100.00;101217.34;2088566;28;20064;-75
2023/02/23 01:36:48;;;;;;;16.50;11.65;;;;;;;11.70;100.00;101214.63;2090100;28;20051;-75
2023/02/23 01:38:12;;;;;;;19.30;12.05;;;;;;;11.67;100.00;101210.19;2090754;28;20097;-75
2023/02/23 01:39:35;;;;;;;17.42;13.18;;;;;;;11.65;100.00;101217.19;2085419;28;20048;-76
2023/02/23 01:40:57;;;;;;;20.00;15.38;;;;;;;11.64;100.00;101215.41;2091894;28;20077;-75
2023/02/23 01:42:21;;;;;;;20.35;17.10;;;;;;;11.63;100.00;101215.38;2103330;28;20059;-76
2023/02/23 01:43:59;;;;;;;18.02;12.60;;;;;;;11.62;100.00;101217.13;2096220;28;20093;-75
2023/02/23 01:45:33;;;;;;;18.88;13.07;;;;;;;11.61;100.00;101217.13;2086412;28;20109;-76
2023/02/23 01:46:55;;;;;;;21.27;14.45;;;;;;;11.57;100.00;101219.69;2094477;28;20055;-75
2023/02/23 01:48:21;;;;;;;21.45;13.60;;;;;;;11.58;100.00;101220.59;2096070;28;20048;-76
2023/02/23 01:49:43;;;;;;;19.27;13.02;;;;;;;11.58;100.00;101217.94;2089421;28;20147;-75
2023/02/23 01:51:09;;;;;;;17.08;12.43;;;;;;;11.56;100.00;101217.91;2098923;28;20074;-75
2023/02/23 01:52:32;;;;;;;15.73;11.32;;;;;;;11.53;100.00;101211.69;2104778;28;20063;-75
2023/02/23 01:54:00;;;;;;;17.10;11.60;;;;;;;11.53;100.00;101216.97;2110717;28;20047;-75
2023/02/23 01:55:25;;;;;;;18.63;11.82;;;;;;;11.52;100.00;101218.72;2104643;28;20075;-75
2023/02/23 01:56:56;;;;;;;18.13;11.40;;;;;;;11.51;100.00;101219.56;2099094;28;20052;-75
2023/02/23 01:58:20;;;;;;;18.13;12.02;;;;;;;11.51;100.00;101213.41;2091897;28;20062;-76
2023/02/23 01:59:43;;;;;;;17.80;11.88;;;;;;;11.51;100.00;101216.03;2087625;28;20052;-76
2023/02/23 02:01:06;;;;;;;17.48;12.38;;;;;;;11.52;100.00;101213.44;2095205;28;20550;-75
2023/02/23 02:02:32;;;;;;;18.77;11.93;;;;;;;11.52;100.00;101216.06;2093818;28;20044;-75
2023/02/23 02:03:58;;;;;;;18.35;12.35;;;;;;;11.52;100.00;101218.72;2092133;28;20052;-75
2023/02/23 02:05:19;;;;;;;19.83;12.55;;;;;;;11.53;100.00;101214.31;2086017;28;20037;-75
2023/02/23 02:06:52;;;;;;;17.75;12.23;;;;;;;11.53;100.00;101214.31;2096581;28;20047;-76
2023/02/23 02:08:15;;;;;;;17.45;11.75;;;;;;;11.52;100.00;101217.81;2086412;28;20045;-75
2023/02/23 02:09:39;;;;;;;18.27;12.27;;;;;;;11.52;100.00;101220.47;2086360;28;20048;-76
2023/02/23 02:11:08;;;;;;;19.02;11.48;;;;;;;11.53;100.00;101215.22;2098444;28;20818;-75
2023/02/23 02:12:30;;;;;;;16.60;11.52;;;;;;;11.53;100.00;101214.31;2095177;28;20040;-75
2023/02/23 02:13:57;;;;;;;19.35;13.50;;;;;;;11.54;100.00;101214.34;2098770;28;20059;-76
2023/02/23 02:15:24;;;;;;;18.17;12.32;;;;;;;11.55;100.00;101216.09;2101664;28;20358;-75
2023/02/23 02:17:06;;;;;;;19.38;12.48;;;;;;;11.58;100.00;101212.66;2102373;28;20048;-75
2023/02/23 02:18:40;;;;;;;17.50;12.43;;;;;;;11.59;100.00;101219.72;2095605;28;20128;-73
2023/02/23 02:20:31;;;;;;;19.90;12.00;;;;;;;11.62;100.00;101218.91;2087228;28;20063;-73
2023/02/23 02:22:32;;;;;;;19.77;12.40;;;;;;;11.64;100.00;101220.69;2092379;28;20517;-73
2023/02/23 02:24:51;;;;;;;17.00;12.55;;;;;;;11.65;100.00;101219.84;2088052;28;20381;-73
2023/02/23 02:26:20;;;;;;;16.73;12.13;;;;;;;11.68;100.00;101221.66;2042532;28;20427;-73
2023/02/23 02:28:21;;;;;;;17.05;11.77;;;;;;;11.68;100.00;101211.06;2077552;28;20144;-73
2023/02/23 02:30:18;;;;;;;19.33;12.07;;;;;;;11.68;100.00;101219.91;2071009;28;20064;-73
2023/02/23 02:32:12;;;;;;;20.17;12.18;;;;;;;11.66;100.00;101218.09;2084210;28;20076;-73
2023/02/23 02:33:57;;;;;;;16.95;11.98;;;;;;;11.61;100.00;101214.47;2096509;28;20094;-73
2023/02/23 02:35:50;;;;;;;24.27;16.65;;;;;;;11.52;100.00;101212.53;2087994;28;20521;-73
2023/02/23 02:37:37;;;;;;;19.20;14.18;;;;;;;11.46;100.00;101215.06;2097476;28;20043;-73
2023/02/23 02:39:06;;;;;;;18.58;11.55;;;;;;;11.43;100.00;101218.53;2096297;28;20144;-73
2023/02/23 02:40:37;;;;;;;16.77;11.05;;;;;;;11.43;100.00;101215.00;2096980;28;20056;-73
2023/02/23 02:42:09;;;;;;;16.77;11.10;;;;;;;11.44;100.00;101219.41;2100793;28;20094;-73
2023/02/23 02:43:41;;;;;;;18.48;11.68;;;;;;;11.43;100.00;101220.28;2103551;28;20052;-73
2023/02/23 02:45:11;;;;;;;16.38;11.50;;;;;;;11.41;100.00;101220.28;2093470;28;20048;-73
2023/02/23 02:46:38;;;;;;;17.08;11.02;;;;;;;11.39;100.00;101215.81;2092575;28;20045;-73
2023/02/23 02:48:05;;;;;;;17.38;11.23;;;;;;;11.39;100.00;101227.28;2099429;28;20052;-73
2023/02/23 02:49:32;;;;;;;17.38;11.30;;;;;;;11.37;100.00;101223.69;2094507;28;20040;-73
2023/02/23 02:50:57;;;;;;;21.50;11.80;;;;;;;11.36;100.00;101226.31;2101473;28;20048;-73
2023/02/23 02:52:25;;;;;;;17.17;11.20;;;;;;;11.34;100.00;101222.75;2092008;28;20044;-73
2023/02/23 02:53:56;;;;;;;16.73;11.65;;;;;;;11.32;100.00;101225.38;2092744;28;20056;-73
2023/02/23 02:55:23;;;;;;;18.80;11.70;;;;;;;11.30;100.00;101224.44;2100986;28;20064;-73
2023/02/23 02:56:47;;;;;;;18.23;11.98;;;;;;;11.26;100.00;101219.06;2087857;28;20053;-73
2023/02/23 02:58:12;;;;;;;15.93;11.50;;;;;;;11.22;100.00;101222.53;2088459;28;20652;-73
2023/02/23 04:17:53;;;;;;;17.45;10.80;;;;;;;10.82;100.00;101244.56;2105516;28;20043;-72
2023/02/23 04:19:14;;;;;;;15.88;10.02;;;;;;;10.85;100.00;101244.59;2097223;28;20041;-73
2023/02/23 04:20:36;;;;;;;14.10;9.32;;;;;;;10.87;100.00;101249.06;2098677;28;20525;-73
2023/02/23 04:21:59;;;;;;;15.32;9.85;;;;;;;10.90;100.00;101251.78;2101540;28;20040;-73
2023/02/23 04:23:22;;;;;;;16.63;10.63;;;;;;;10.92;100.00;101250.06;2101602;28;20166;-74
2023/02/23 04:24:45;;;;;;;15.63;10.77;;;;;;;10.95;100.00;101249.25;2088877;28;20056;-73
2023/02/23 04:26:07;;;;;;;15.75;9.98;;;;;;;10.95;100.00;101252.78;2092308;28;20579;-73
2023/02/23 04:27:29;;;;;;;18.27;10.68;;;;;;;10.97;100.00;101253.69;2094317;28;20044;-74
2023/02/23 04:28:52;;;;;;;22.52;14.27;;;;;;;11.01;100.00;101252.03;2085815;28;20056;-73
2023/02/23 04:30:15;;;;;;;23.05;16.88;;;;;;;11.03;100.00;101253.81;2094483;28;20067;-73
2023/02/23 04:31:36;;;;;;;23.88;18.35;;;;;;;11.05;100.00;101254.75;2105378;28;20103;-73
2023/02/23 04:32:59;;;;;;;17.08;13.10;;;;;;;11.07;100.00;101250.41;2093298;28;20132;-74
2023/02/23 04:34:20;;;;;;;20.88;17.33;;;;;;;11.09;100.00;101247.81;2090941;28;20071;-74
2023/02/23 04:35:43;;;;;;;23.23;17.73;;;;;;;11.11;100.00;101246.06;2099928;28;20143;-73
2023/02/23 04:37:05;;;;;;;19.92;14.52;;;;;;;11.12;100.00;101248.75;2102625;28;20055;-74
2023/02/23 04:38:27;;;;;;;15.38;10.95;;;;;;;11.14;100.00;101240.84;2102450;28;20055;-73
2023/02/23 04:39:49;;;;;;;18.55;12.75;;;;;;;11.17;100.00;101251.47;2102700;28;20052;-74
2023/02/23 04:41:11;;;;;;;17.02;11.25;;;;;;;11.19;100.00;101248.00;2094118;28;20143;-74
2023/02/23 04:42:33;;;;;;;18.80;10.98;;;;;;;11.22;100.00;101248.94;2085840;28;20139;-74
2023/02/23 04:43:57;;;;;;;15.07;10.80;;;;;;;11.25;100.00;101251.63;2090387;28;20497;-73
2023/02/23 04:45:19;;;;;;;15.38;9.90;;;;;;;11.27;100.00;101252.56;2100378;28;20555;-73
2023/02/23 04:46:42;;;;;;;16.60;11.05;;;;;;;11.27;100.00;101250.81;2104531;28;20032;-73
2023/02/23 04:48:04;;;;;;;15.95;9.65;;;;;;;11.26;100.00;101246.38;2094171;28;20056;-73
2023/02/23 04:49:26;;;;;;;13.70;9.05;;;;;;;11.28;100.00;101252.59;2098788;28;20369;-74
2023/02/23 04:50:51;;;;;;;12.75;7.72;;;;;;;11.28;100.00;101246.44;2088556;28;20470;-73
2023/02/23 04:52:13;;;;;;;11.95;7.80;;;;;;;11.27;100.00;101252.56;2102697;28;20056;-74
2023/02/23 04:53:36;;;;;;;11.02;7.45;;;;;;;11.29;100.00;101248.22;2096297;28;20494;-73
2023/02/23 04:54:57;;;;;;;17.58;12.90;;;;;;;11.30;100.00;101257.91;2101234;28;20414;-74
2023/02/23 04:56:20;;;;;;;14.23;9.63;;;;;;;11.30;100.00;101258.78;2102470;28;20051;-74
2023/02/23 04:57:41;;;;;;;14.88;10.18;;;;;;;11.30;100.00;101253.50;2099673;28;20175;-74
2023/02/23 04:59:05;;;;;;;17.73;12.73;;;;;;;11.32;100.00;101250.91;2096626;28;20359;-74
2023/02/23 05:00:28;;;;;;;18.17;14.50;;;;;;;11.32;100.00;101250.91;2100673;28;20113;-74
2023/02/23 05:01:50;;;;;;;16.92;11.85;;;;;;;11.29;100.00;101254.34;2105256;28;20039;-74
2023/02/23 05:03:12;;;;;;;14.77;10.15;;;;;;;11.27;100.00;101252.56;2096628;28;20064;-74
2023/02/23 05:04:35;;;;;;;17.25;13.13;;;;;;;11.28;100.00;101259.63;2094166;28;20056;-74
2023/02/23 05:05:56;;;;;;;13.70;10.65;;;;;;;11.28;100.00;101249.97;2094079;28;20048;-73
2023/02/23 05:07:18;;;;;;;14.13;8.60;;;;;;;11.30;100.00;101258.78;2096162;28;20049;-74
2023/02/23 05:08:41;;;;;;;11.57;7.82;;;;;;;11.32;100.00;101259.72;2085858;28;20071;-74
2023/02/23 05:10:04;;;;;;;12.00;8.50;;;;;;;11.36;100.00;101255.38;2091258;28;20045;-73
2023/02/23 05:11:26;;;;;;;12.13;8.48;;;;;;;11.40;100.00;101260.78;2094117;28;20124;-73
2023/02/23 05:12:49;;;;;;;12.32;8.25;;;;;;;11.45;100.00;101260.88;2093735;28;20041;-74
2023/02/23 05:14:11;;;;;;;12.07;7.68;;;;;;;11.51;100.00;101268.91;2097398;28;20067;-74
2023/02/23 05:15:33;;;;;;;13.35;9.48;;;;;;;11.55;100.00;101266.34;2088230;28;20071;-74
2023/02/23 05:16:55;;;;;;;14.40;10.80;;;;;;;11.61;100.00;101265.59;2091176;28;20106;-74
2023/02/23 05:18:17;;;;;;;15.68;10.85;;;;;;;11.64;100.00;101268.28;2094323;28;20139;-74
2023/02/23 05:19:38;;;;;;;17.30;13.18;;;;;;;11.69;100.00;101269.25;2093975;28;20101;-74
2023/02/23 05:21:06;;;;;;;19.27;15.20;;;;;;;11.74;100.00;101265.00;2096553;28;20052;-75
2023/02/23 05:22:28;;;;;;;21.60;18.17;;;;;;;11.79;100.00;101270.38;2096688;28;20044;-74
2023/02/23 05:23:50;;;;;;;25.83;20.15;;;;;;;11.85;100.00;101266.09;2093711;28;20052;-74
2023/02/23 05:25:11;;;;;;;30.38;25.95;;;;;;;11.90;100.00;101275.00;2096694;28;20620;-73
2023/02/23 05:26:34;;;;;;;32.15;27.80;;;;;;;11.94;100.00;101273.31;2102328;28;20052;-74
2023/02/23 05:27:55;;;;;;;31.25;26.48;;;;;;;11.99;100.00;101284.88;2096428;28;20048;-74
2023/02/23 05:29:19;;;;;;;33.75;27.08;;;;;;;12.05;100.00;101265.56;2085841;28;20045;-73
2023/02/23 05:30:40;;;;;;;29.30;24.73;;;;;;;12.12;100.00;101280.69;2100016;28;20044;-74
2023/02/23 05:32:02;;;;;;;25.63;20.27;;;;;;;12.20;100.00;101276.41;2093690;28;20063;-74
2023/02/23 05:33:24;;;;;;;23.63;18.00;;;;;;;12.26;100.00;101279.16;2097247;28;20039;-74
2023/02/23 05:34:46;;;;;;;24.05;19.35;;;;;;;12.34;100.00;101272.22;2102310;28;20052;-74
2023/02/23 05:36:10;;;;;;;24.83;17.10;;;;;;;12.42;100.00;101281.19;2094003;28;20145;-73
2023/02/23 05:37:32;;;;;;;15.52;12.50;;;;;;;12.47;100.00;101284.78;2097208;28;20040;-74
2023/02/23 05:38:54;;;;;;;20.48;15.07;;;;;;;12.54;100.00;101288.44;2096687;28;20394;-74
2023/02/23 05:40:17;;;;;;;21.80;15.93;;;;;;;12.61;100.00;101287.66;2099617;28;20562;-74
2023/02/23 05:41:40;;;;;;;19.55;15.35;;;;;;;12.69;100.00;101286.03;2092782;28;20048;-73
2023/02/23 05:43:02;;;;;;;20.00;15.40;;;;;;;12.75;100.00;101287.00;2100713;28;20039;-74
2023/02/23 05:44:26;;;;;;;19.52;15.45;;;;;;;12.83;100.00;101294.19;2086050;28;20082;-74
2023/02/23 05:45:49;;;;;;;26.83;23.40;;;;;;;12.88;100.00;101292.50;2089559;28;20099;-74
2023/02/23 05:47:11;;;;;;;25.13;21.00;;;;;;;12.93;100.00;101294.34;2098411;28;20048;-74
2023/02/23 05:48:33;;;;;;;27.65;21.77;;;;;;;12.99;100.00;101298.88;2102088;28;20514;-73
2023/02/23 05:49:55;;;;;;;15.77;13.13;;;;;;;13.04;100.00;101294.50;2098737;28;20052;-75
2023/02/23 05:51:18;;;;;;;12.27;10.07;;;;;;;13.02;100.00;101293.59;2097805;28;20040;-74
2023/02/23 05:52:41;;;;;;;12.45;8.27;;;;;;;12.97;100.00;101296.19;2102216;28;20055;-74
2023/02/23 05:54:02;;;;;;;9.50;6.85;;;;;;;12.92;100.00;101294.34;2102361;28;20621;-75
2023/02/23 05:55:25;;;;;;;10.05;7.13;;;;;;;12.86;100.00;101288.94;2100463;28;20056;-74
2023/02/23 05:56:47;;;;;;;9.70;7.68;;;;;;;12.83;100.00;101295.09;2102236;28;20044;-74
2023/02/23 05:58:08;;;;;;;10.68;7.57;;;;;;;12.82;100.00;101289.75;2100988;28;20404;-74
2023/02/23 05:59:32;;;;;;;10.93;8.65;;;;;;;12.85;100.00;101293.34;2104753;28;20043;-73
2023/02/23 06:00:54;;;;;;;12.80;8.88;;;;;;;12.93;100.00;101301.44;2090638;28;20053;-74
2023/02/23 06:02:17;;;;;;;18.00;12.50;;;;;;;12.98;100.00;101297.06;2090828;28;20029;-74
2023/02/23 06:03:39;;;;;;;19.20;13.82;;;;;;;13.02;100.00;101301.53;2099384;28;20060;-73
2023/02/23 06:05:01;;;;;;;17.75;13.40;;;;;;;13.03;100.00;101301.56;2095582;28;20056;-73
2023/02/23 06:06:24;;;;;;;22.92;15.05;;;;;;;13.05;100.00;101301.59;2093928;28;20055;-73
2023/02/23 06:07:47;;;;;;;19.45;15.05;;;;;;;13.04;100.00;101303.34;2096538;28;20052;-73
2023/02/23 06:09:09;;;;;;;24.40;18.98;;;;;;;13.04;100.00;101302.47;2101836;28;20044;-74
2023/02/23 06:10:31;;;;;;;20.98;17.48;;;;;;;13.04;100.00;101310.41;2095800;28;20040;-74
2023/02/23 06:11:54;;;;;;;23.23;19.08;;;;;;;13.04;100.00;101303.34;2093704;28;20059;-73
2023/02/23 06:13:16;;;;;;;23.50;17.40;;;;;;;13.04;100.00;101305.13;2095471;28;20048;-74
2023/02/23 06:14:40;;;;;;;23.10;17.60;;;;;;;13.03;100.00;101304.22;2096650;28;20045;-74
2023/02/23 06:16:02;;;;;;;20.23;17.05;;;;;;;13.05;100.00;101306.91;2088593;28;20079;-73
2023/02/23 06:17:25;;;;;;;21.73;15.93;;;;;;;13.05;100.00;101306.91;2099157;28;20063;-74
2023/02/23 06:18:47;;;;;;;21.30;16.13;;;;;;;13.06;100.00;101308.69;2101913;28;20404;-74
2023/02/23 06:20:11;;;;;;;21.17;17.52;;;;;;;13.09;100.00;101314.00;2096994;28;20088;-74
2023/02/23 06:21:33;;;;;;;26.65;21.70;;;;;;;13.10;100.00;101306.09;2110542;28;20043;-73
2023/02/23 06:22:56;;;;;;;25.85;20.35;;;;;;;13.12;100.00;101308.78;2094325;28;20079;-74
2023/02/23 06:24:18;;;;;;;25.05;21.35;;;;;;;13.15;100.00;101314.13;2087014;28;20037;-74
2023/02/23 06:25:41;;;;;;;28.13;22.50;;;;;;;13.21;100.00;101318.63;2087061;28;20056;-74
2023/02/23 06:27:04;;;;;;;26.27;21.92;;;;;;;13.26;100.00;101319.59;2101294;28;20574;-73
2023/02/23 06:28:25;;;;;;;24.02;19.27;;;;;;;13.31;100.00;101316.13;2093735;28;20673;-73
2023/02/23 06:29:49;;;;;;;21.40;17.45;;;;;;;13.38;100.00;101319.75;2100067;28;20048;-74
2023/02/23 06:31:10;;;;;;;20.05;16.00;;;;;;;13.42;100.00;101319.81;2100497;28;20105;-73
2023/02/23 06:32:33;;;;;;;24.13;17.05;;;;;;;13.48;100.00;101322.53;2093525;28;20051;-74
2023/02/23 06:33:58;;;;;;;23.48;18.35;;;;;;;13.54;100.00;101322.59;2086189;28;20045;-73
2023/02/23 06:35:19;;;;;;;22.10;18.40;;;;;;;13.61;100.00;101325.34;2089532;28;20139;-74
2023/02/23 06:36:42;;;;;;;22.73;17.65;;;;;;;13.68;100.00;101330.75;2098855;28;20144;-74
2023/02/23 06:38:05;;;;;;;23.63;16.73;;;;;;;13.83;100.00;101327.38;2096975;28;20441;-74
2023/02/23 06:39:27;;;;;;;22.10;17.67;;;;;;;13.95;100.00;101325.75;2099197;28;20090;-74
2023/02/23 06:40:50;;;;;;;30.67;19.20;;;;;;;14.08;100.00;101324.13;2101901;28;20044;-74
2023/02/23 06:42:12;;;;;;;22.30;17.65;;;;;;;14.28;100.00;101322.53;2100592;28;20051;-73
2023/02/23 06:43:33;;;;;;;25.45;18.90;;;;;;;14.50;100.00;101317.47;2090618;28;20745;-74
2023/02/23 06:44:57;;;;;;;26.73;20.23;;;;;;;14.75;100.00;101320.34;2100110;28;20063;-73
2023/02/23 06:46:20;;;;;;;28.17;19.52;;;;;;;14.98;100.00;101320.47;2090757;28;20122;-74
2023/02/23 06:47:41;;;;;;;55.17;33.35;;;;;;;15.22;100.00;101329.50;2093241;28;20052;-74
2023/02/23 06:49:04;;;;;;;56.50;32.25;;;;;;;15.44;100.00;101324.28;2089880;28;20037;-74
2023/02/23 06:50:29;;;;;;;43.78;28.02;;;;;;;15.67;100.00;101323.53;2089575;28;20048;-74
2023/02/23 06:51:51;;;;;;;71.28;39.10;;;;;;;15.87;100.00;101319.16;2090939;28;20412;-73
2023/02/23 06:53:13;;;;;;;50.97;32.17;;;;;;;16.09;100.00;101328.09;2100518;28;20458;-73
2023/02/23 06:54:36;;;;;;;46.83;29.95;;;;;;;16.27;100.00;101317.47;2089481;28;20474;-74
2023/02/23 06:55:59;;;;;;;106.10;55.17;;;;;;;16.42;100.00;101316.59;2100839;28;20050;-74
2023/02/23 06:57:22;;;;;;;101.55;52.92;;;;;;;16.57;100.00;101316.59;2104422;28;20519;-73
2023/02/23 06:58:45;;;;;;;133.23;66.95;;;;;;;16.71;100.00;101318.41;2103020;28;20055;-74
2023/02/23 07:00:13;;;;;;;84.70;44.83;;;;;;;16.85;100.00;101320.19;2100887;28;20078;-73
2023/02/23 07:01:36;;;;;;;47.35;30.17;;;;;;;16.96;100.00;101311.25;2103652;28;20075;-73
2023/02/23 07:02:58;;;;;;;50.70;35.47;;;;;;;17.07;100.00;101311.22;2101228;28;20040;-73
2023/02/23 07:04:21;;;;;;;42.38;26.35;;;;;;;17.17;100.00;101309.44;2090145;28;20139;-74
2023/02/23 07:05:43;;;;;;;31.27;20.38;;;;;;;17.29;100.00;101309.41;2093897;28;20116;-74
2023/02/23 07:07:05;;;;;;;45.10;26.65;;;;;;;17.44;100.00;101310.25;2103085;28;20054;-74
2023/02/23 07:08:28;;;;;;;41.15;24.75;;;;;;;17.60;100.00;101308.38;2101730;28;20036;-74
2023/02/23 07:09:50;;;;;;;30.45;18.67;;;;;;;17.77;100.00;101306.56;2111665;28;20543;-74
2023/02/23 07:11:15;;;;;;;27.27;17.00;;;;;;;17.92;100.00;101294.91;2104083;28;20036;-74
2023/02/23 07:12:37;;;;;;;13.80;7.53;;;;;;;18.08;100.00;101301.03;2089715;28;20064;-74
2023/02/23 07:14:00;;;;;;;14.32;8.60;;;;;;;18.21;100.00;101305.41;2094530;28;20129;-74
2023/02/23 07:15:24;;;;;;;16.48;9.57;;;;;;;18.28;100.00;101302.69;2094720;28;20059;-73
2023/02/23 07:16:46;;;;;;;17.23;8.13;;;;;;;18.36;100.00;101297.28;2094316;28;20059;-74
2023/02/23 07:18:08;;;;;;;16.63;10.15;;;;;;;18.50;100.00;101299.84;2085814;28;20083;-74
2023/02/23 07:19:31;;;;;;;14.00;8.60;;;;;;;18.62;100.00;101294.44;2097595;28;20036;-75
2023/02/23 07:20:53;;;;;;;15.27;8.43;;;;;;;18.74;100.00;101304.13;2097556;28;20048;-74
2023/02/23 07:22:16;;;;;;;10.43;5.13;;;;;;;18.86;100.00;101301.31;2094605;28;20060;-74
2023/02/23 07:23:38;;;;;;;9.05;5.15;;;;;;;18.96;100.00;101300.34;2094870;28;20481;-74
2023/02/23 07:25:00;;;;;;;7.55;4.32;;;;;;;19.04;100.00;101301.13;2090664;28;20041;-74
2023/02/23 07:26:22;;;;;;;6.95;4.40;;;;;;;19.11;100.00;101302.84;2100341;28;20044;-74
2023/02/23 07:27:45;;;;;;;9.45;4.72;;;;;;;19.19;100.00;101302.78;2099008;28;20048;-74
2023/02/23 07:29:07;;;;;;;9.18;5.50;;;;;;;19.29;100.00;101299.09;2091265;28;20075;-74
2023/02/23 07:30:31;;;;;;;8.55;4.13;;;;;;;19.38;100.00;101304.31;2090943;28;20540;-74
2023/02/23 07:31:54;;;;;;;8.70;3.80;;;;;;;19.45;100.00;101303.34;2094454;28;20044;-74
2023/02/23 07:33:16;;;;;;;7.00;3.78;;;;;;;19.44;100.00;101298.91;2091819;28;20234;-74
2023/02/23 07:34:39;;;;;;;6.68;3.42;;;;;;;19.46;100.00;101298.03;2094840;28;20704;-74
2023/02/23 07:36:01;;;;;;;7.07;4.07;;;;;;;19.56;100.00;101298.78;2105568;28;20043;-74
2023/02/23 07:37:23;;;;;;;11.15;4.47;;;;;;;19.70;100.00;101301.28;2097241;28;20059;-75
2023/02/23 07:38:45;;;;;;;10.38;5.22;;;;;;;19.80;100.00;101298.47;2107723;28;20062;-74
2023/02/23 07:40:08;;;;;;;9.43;4.47;;;;;;;19.92;100.00;101304.56;2101468;28;20052;-74